createdAt,value
2023-08-16T00:00:16.021Z,100822.12
2023-08-16T00:03:05.952Z,100824.36
2023-08-16T00:05:34.066Z,100821.82
2023-08-16T00:08:02.032Z,100820.48
2023-08-16T00:10:30.145Z,100817.98
2023-08-16T00:12:58.116Z,100823.56
2023-08-16T00:15:28.532Z,100820.71
2023-08-16T00:17:56.802Z,100824.36
2023-08-16T00:20:27.976Z,100828.74
2023-08-16T00:22:56.090Z,100829.41
2023-08-16T00:25:24.096Z,100832.13
2023-08-16T00:27:52.265Z,100832.96
2023-08-16T00:30:20.318Z,100835.33
2023-08-16T00:32:48.184Z,100832.48
2023-08-16T00:35:16.217Z,100834.31
2023-08-16T00:37:44.464Z,100838.38
2023-08-16T00:40:12.985Z,100834.46
2023-08-16T00:42:40.911Z,100830.44
2023-08-16T00:45:09.398Z,100829.33
2023-08-16T00:47:37.748Z,100828.48
2023-08-16T00:50:07.349Z,100829.83
2023-08-16T00:52:38.355Z,100833.08
2023-08-16T00:55:07.522Z,100837.86
2023-08-16T00:57:35.573Z,100836.83
2023-08-16T01:00:06.277Z,100841.31
2023-08-16T01:02:34.421Z,100840.73
2023-08-16T01:05:03.650Z,100842.54
2023-08-16T01:07:31.728Z,100843.87
2023-08-16T01:09:59.727Z,100842.80
2023-08-16T01:12:49.153Z,100842.63
2023-08-16T01:15:26.510Z,100836.52
2023-08-16T01:17:55.398Z,100832.84
2023-08-16T01:20:24.845Z,100832.45
2023-08-16T01:23:04.875Z,100824.48
2023-08-16T01:25:49.940Z,100825.59
2023-08-16T01:28:20.113Z,100823.13
2023-08-16T01:30:49.002Z,100826.13
2023-08-16T01:33:17.136Z,100825.35
2023-08-16T01:35:46.905Z,100828.86
2023-08-16T01:38:16.784Z,100834.69
2023-08-16T01:40:53.372Z,100828.67
2023-08-16T01:43:22.240Z,100829.23
2023-08-16T01:45:53.068Z,100825.38
2023-08-16T01:48:23.909Z,100826.23
2023-08-16T01:50:52.629Z,100824.42
2023-08-16T01:53:20.828Z,100827.70
2023-08-16T01:55:48.804Z,100828.55
2023-08-16T01:58:17.578Z,100828.10
2023-08-16T02:00:45.478Z,100824.61
2023-08-16T02:03:13.448Z,100827.33
2023-08-16T02:05:42.798Z,100832.56
2023-08-16T02:08:11.828Z,100830.33
2023-08-16T02:10:40.714Z,100825.91
2023-08-16T02:13:08.584Z,100819.59
2023-08-16T02:15:37.459Z,100818.55
2023-08-16T02:18:07.595Z,100816.73
2023-08-16T02:20:35.579Z,100815.86
2023-08-16T02:23:03.671Z,100817.64
2023-08-16T02:25:31.721Z,100815.98
2023-08-16T02:28:00.240Z,100818.67
2023-08-16T02:30:28.317Z,100817.50
2023-08-16T02:32:56.407Z,100820.12
2023-08-16T02:35:24.413Z,100823.48
2023-08-16T02:37:52.852Z,100821.73
2023-08-16T02:40:20.963Z,100818.15
2023-08-16T02:42:50.574Z,100819.02
2023-08-16T02:45:19.050Z,100819.92
2023-08-16T02:47:48.968Z,100822.75
2023-08-16T02:50:17.591Z,100825.40
2023-08-16T02:52:45.642Z,100821.73
2023-08-16T02:55:13.762Z,100816.58
2023-08-16T02:57:41.735Z,100814.90
2023-08-16T03:00:12.143Z,100819.54
2023-08-16T03:02:40.174Z,100821.29
2023-08-16T03:05:08.244Z,100823.48
2023-08-16T03:07:36.302Z,100826.98
2023-08-16T03:10:04.598Z,100825.03
2023-08-16T03:12:32.682Z,100824.29
2023-08-16T03:15:00.751Z,100825.43
2023-08-16T03:17:29.321Z,100827.20
2023-08-16T03:19:57.315Z,100832.63
2023-08-16T03:22:28.111Z,100832.48
2023-08-16T03:24:56.203Z,100840.93
2023-08-16T03:27:24.434Z,100840.33
2023-08-16T03:29:52.870Z,100840.71
2023-08-16T03:32:20.870Z,100837.52
2023-08-16T03:34:48.766Z,100841.23
2023-08-16T03:37:16.976Z,100846.71
2023-08-16T03:39:45.440Z,100852.17
2023-08-16T03:42:13.332Z,100848.00
2023-08-16T03:44:41.357Z,100849.23
2023-08-16T03:47:09.353Z,100851.68
2023-08-16T03:49:37.222Z,100845.64
2023-08-16T03:52:05.258Z,100845.11
2023-08-16T03:54:35.006Z,100848.50
2023-08-16T03:57:03.453Z,100851.92
2023-08-16T03:59:32.115Z,100855.27
2023-08-16T04:02:00.243Z,100861.98
2023-08-16T04:04:28.197Z,100861.20
2023-08-16T04:06:56.206Z,100862.62
2023-08-16T04:09:24.267Z,100863.27
2023-08-16T04:11:52.594Z,100860.91
2023-08-16T04:14:20.573Z,100860.92
2023-08-16T04:16:48.747Z,100853.23
2023-08-16T04:19:16.987Z,100858.11
2023-08-16T04:21:44.961Z,100862.73
2023-08-16T04:24:12.884Z,100862.18
2023-08-16T04:26:41.797Z,100867.23
2023-08-16T04:29:10.109Z,100859.70
2023-08-16T04:31:38.504Z,100862.91
2023-08-16T04:34:07.368Z,100860.63
2023-08-16T04:36:35.411Z,100858.70
2023-08-16T04:39:03.597Z,100862.73
2023-08-16T04:41:31.892Z,100864.18
2023-08-16T04:43:59.814Z,100866.64
2023-08-16T04:46:29.553Z,100864.55
2023-08-16T04:48:57.836Z,100867.17
2023-08-16T04:51:25.975Z,100867.94
2023-08-16T04:53:54.360Z,100866.83
2023-08-16T04:56:23.910Z,100860.54
2023-08-16T04:58:52.216Z,100862.52
2023-08-16T05:01:21.395Z,100861.56
2023-08-16T05:03:53.572Z,100863.23
2023-08-16T05:06:22.889Z,100855.31
2023-08-16T05:08:51.012Z,100853.67
2023-08-16T05:11:20.098Z,100850.21
2023-08-16T05:13:48.146Z,100850.02
2023-08-16T05:16:16.244Z,100849.77
2023-08-16T05:18:44.334Z,100847.39
2023-08-16T05:21:12.521Z,100851.83
2023-08-16T05:23:40.473Z,100851.59
2023-08-16T05:26:08.698Z,100851.38
2023-08-16T05:28:36.686Z,100854.23
2023-08-16T05:31:09.967Z,100856.43
2023-08-16T05:33:41.425Z,100854.08
2023-08-16T05:36:09.513Z,100854.63
2023-08-16T05:38:37.444Z,100854.49
2023-08-16T05:41:05.900Z,100856.60
2023-08-16T05:43:33.905Z,100854.73
2023-08-16T05:46:01.882Z,100853.23
2023-08-16T05:48:30.002Z,100849.47
2023-08-16T05:50:57.959Z,100847.77
2023-08-16T05:53:26.930Z,100842.92
2023-08-16T05:55:54.969Z,100844.37
2023-08-16T05:58:23.088Z,100838.80
2023-08-16T06:00:53.726Z,100839.06
2023-08-16T06:03:21.976Z,100840.20
2023-08-16T06:05:50.130Z,100840.80
2023-08-16T06:08:18.164Z,100840.67
2023-08-16T06:10:46.664Z,100838.73
2023-08-16T06:13:14.631Z,100842.37
2023-08-16T06:15:42.688Z,100851.67
2023-08-16T06:18:10.734Z,100860.23
2023-08-16T06:20:39.703Z,100861.95
2023-08-16T06:23:07.577Z,100865.41
2023-08-16T06:25:36.372Z,100865.06
2023-08-16T06:31:04.901Z,100858.48
2023-08-16T06:33:33.980Z,100861.63
2023-08-16T06:36:02.029Z,100864.42
2023-08-16T06:38:29.909Z,100862.74
2023-08-16T06:40:57.913Z,100861.24
2023-08-16T06:43:25.878Z,100858.14
2023-08-16T06:45:53.783Z,100855.38
2023-08-16T06:48:21.773Z,100850.95
2023-08-16T06:50:50.183Z,100850.69
2023-08-16T06:53:18.117Z,100851.35
2023-08-16T06:55:46.519Z,100852.69
2023-08-16T06:58:14.463Z,100851.17
2023-08-16T07:00:46.986Z,100852.69
2023-08-16T07:03:15.288Z,100855.34
2023-08-16T07:05:44.545Z,100857.64
2023-08-16T07:08:12.712Z,100856.21
2023-08-16T07:10:45.190Z,100852.65
2023-08-16T07:13:13.517Z,100855.03
2023-08-16T07:15:41.608Z,100857.30
2023-08-16T07:18:09.547Z,100855.81
2023-08-16T07:20:37.770Z,100853.56
2023-08-16T07:23:07.640Z,100853.52
2023-08-16T07:25:36.026Z,100854.60
2023-08-16T07:28:06.109Z,100853.18
2023-08-16T07:30:37.770Z,100852.21
2023-08-16T07:33:07.093Z,100854.52
2023-08-16T07:35:35.222Z,100850.27
2023-08-16T07:38:04.810Z,100848.91
2023-08-16T07:40:33.106Z,100852.19
2023-08-16T07:43:01.268Z,100852.84
2023-08-16T07:45:29.233Z,100854.52
2023-08-16T07:47:57.393Z,100849.35
2023-08-16T07:50:25.361Z,100848.16
2023-08-16T07:52:53.395Z,100846.35
2023-08-16T07:55:24.011Z,100840.71
2023-08-16T07:57:51.914Z,100844.61
2023-08-16T08:00:20.276Z,100846.38
2023-08-16T08:02:59.438Z,100843.52
2023-08-16T08:05:29.005Z,100838.66
2023-08-16T08:07:57.000Z,100839.16
2023-08-16T08:10:25.082Z,100834.92
2023-08-16T08:12:53.340Z,100833.48
2023-08-16T08:15:21.248Z,100833.14
2023-08-16T08:17:49.224Z,100832.55
2023-08-16T08:20:17.363Z,100833.14
2023-08-16T08:22:45.523Z,100832.50
2023-08-16T08:25:13.739Z,100834.23
2023-08-16T08:27:42.160Z,100831.83
2023-08-16T08:30:12.271Z,100831.02
2023-08-16T08:32:43.600Z,100829.63
2023-08-16T08:35:12.050Z,100830.90
2023-08-16T08:37:40.357Z,100830.84
2023-08-16T08:40:09.258Z,100832.94
2023-08-16T08:42:39.893Z,100833.84
2023-08-16T08:45:08.740Z,100835.65
2023-08-16T08:47:37.122Z,100836.05
2023-08-16T08:50:05.649Z,100835.28
2023-08-16T08:52:34.032Z,100832.76
2023-08-16T08:55:04.496Z,100832.55
2023-08-16T08:57:35.851Z,100827.49
2023-08-16T09:00:06.139Z,100825.91
2023-08-16T09:02:37.554Z,100823.05
2023-08-16T09:05:10.572Z,100825.59
2023-08-16T09:07:41.384Z,100821.52
2023-08-16T09:10:10.756Z,100819.96
2023-08-16T09:12:40.081Z,100816.64
2023-08-16T09:15:09.179Z,100817.86
2023-08-16T09:17:37.429Z,100813.44
2023-08-16T09:20:07.178Z,100817.23
2023-08-16T09:22:35.406Z,100820.16
2023-08-16T09:25:04.617Z,100823.36
2023-08-16T09:27:33.116Z,100822.05
2023-08-16T09:30:02.360Z,100825.18
2023-08-16T09:32:34.392Z,100821.98
2023-08-16T09:35:03.937Z,100824.90
2023-08-16T09:37:33.092Z,100827.13
2023-08-16T09:40:01.123Z,100818.05
2023-08-16T09:42:35.442Z,100820.02
2023-08-16T09:45:04.820Z,100819.58
2023-08-16T09:50:07.888Z,100817.61
2023-08-16T09:52:37.699Z,100818.98
2023-08-16T09:55:09.017Z,100821.59
2023-08-16T09:57:38.128Z,100817.64
2023-08-16T10:00:09.449Z,100818.61
2023-08-16T10:02:51.076Z,100820.02
2023-08-16T10:07:51.177Z,100818.75
2023-08-16T10:10:19.397Z,100818.80
2023-08-16T10:12:48.119Z,100818.37
2023-08-16T10:15:16.177Z,100812.59
2023-08-16T10:17:44.832Z,100814.73
2023-08-16T10:20:23.111Z,100811.79
2023-08-16T10:22:59.959Z,100812.70
2023-08-16T10:25:46.023Z,100816.65
2023-08-16T10:28:20.689Z,100818.46
2023-08-16T10:33:34.477Z,100813.73
2023-08-16T10:36:02.947Z,100818.27
2023-08-16T10:38:38.748Z,100810.94
2023-08-16T10:41:16.770Z,100813.94
2023-08-16T10:43:51.189Z,100811.98
2023-08-16T10:46:35.068Z,100805.49
2023-08-16T10:49:07.536Z,100808.08
2023-08-16T10:51:48.723Z,100807.72
2023-08-16T10:54:17.203Z,100804.48
2023-08-16T10:56:49.067Z,100807.31
2023-08-16T10:59:17.593Z,100807.48
2023-08-16T11:01:50.831Z,100808.45
2023-08-16T11:04:18.933Z,100809.56
2023-08-16T11:07:01.365Z,100805.67
2023-08-16T11:09:31.344Z,100805.64
2023-08-16T11:12:03.704Z,100805.77
2023-08-16T11:14:34.226Z,100802.71
2023-08-16T11:17:03.747Z,100803.65
2023-08-16T11:19:32.487Z,100802.48
2023-08-16T11:22:02.871Z,100801.98
2023-08-16T11:24:32.239Z,100797.71
2023-08-16T11:27:00.193Z,100796.63
2023-08-16T11:29:28.128Z,100799.85
2023-08-16T11:31:57.657Z,100792.98
2023-08-16T11:34:25.866Z,100795.41
2023-08-16T11:36:54.160Z,100796.95
2023-08-16T11:39:23.775Z,100802.96
2023-08-16T11:41:51.891Z,100806.61
2023-08-16T11:44:19.996Z,100806.26
2023-08-16T11:46:52.935Z,100802.46
2023-08-16T11:49:23.058Z,100804.97
2023-08-16T11:51:52.239Z,100803.59
2023-08-16T11:54:23.146Z,100805.08
2023-08-16T11:56:52.315Z,100803.41
2023-08-16T11:59:30.627Z,100800.19
2023-08-16T12:02:07.132Z,100800.13
2023-08-16T12:04:35.403Z,100799.14
2023-08-16T12:07:10.904Z,100798.77
2023-08-16T12:09:42.576Z,100798.84
2023-08-16T12:12:11.484Z,100791.60
2023-08-16T12:14:39.710Z,100786.61
2023-08-16T12:17:07.831Z,100783.98
2023-08-16T12:19:35.703Z,100790.03
2023-08-16T12:22:03.540Z,100785.22
2023-08-16T12:24:31.601Z,100783.38
2023-08-16T12:26:59.788Z,100784.38
2023-08-16T12:29:27.847Z,100777.56
2023-08-16T12:31:55.748Z,100777.29
2023-08-16T12:34:23.816Z,100780.34
2023-08-16T12:36:51.814Z,100778.98
2023-08-16T12:39:19.667Z,100778.58
2023-08-16T12:41:53.162Z,100781.90
2023-08-16T12:44:21.872Z,100777.77
2023-08-16T12:46:49.985Z,100777.89
2023-08-16T12:49:17.924Z,100772.52
2023-08-16T12:51:45.857Z,100773.85
2023-08-16T12:54:14.046Z,100776.64
2023-08-16T12:56:46.431Z,100773.69
2023-08-16T12:59:17.892Z,100770.32
2023-08-16T13:01:47.037Z,100772.60
2023-08-16T13:04:15.719Z,100768.98
2023-08-16T13:09:26.243Z,100768.35
2023-08-16T13:11:55.644Z,100776.52
2023-08-16T13:17:05.152Z,100773.56
2023-08-16T13:19:47.540Z,100767.60
2023-08-16T13:22:18.149Z,100768.10
2023-08-16T13:24:58.106Z,100763.31
2023-08-16T13:27:40.762Z,100761.73
2023-08-16T13:30:25.094Z,100760.06
2023-08-16T13:35:31.308Z,100755.35
2023-08-16T13:37:59.959Z,100753.09
2023-08-16T13:43:14.437Z,100749.90
2023-08-16T13:45:46.020Z,100748.48
2023-08-16T13:48:14.487Z,100749.27
2023-08-16T13:50:42.469Z,100751.75
2023-08-16T13:53:10.337Z,100749.71
2023-08-16T13:55:38.205Z,100751.38
2023-08-16T13:58:08.179Z,100750.04
2023-08-16T14:00:36.351Z,100748.98
2023-08-16T14:03:04.983Z,100749.73
2023-08-16T14:05:33.084Z,100747.79
2023-08-16T14:08:01.162Z,100746.84
2023-08-16T14:10:29.209Z,100748.40
2023-08-16T14:12:57.373Z,100745.47
2023-08-16T14:15:25.360Z,100744.39
2023-08-16T14:17:53.384Z,100745.89
2023-08-16T14:20:21.737Z,100749.35
2023-08-16T14:22:54.674Z,100748.91
2023-08-16T14:25:22.872Z,100756.24
2023-08-16T14:27:51.413Z,100757.42
2023-08-16T14:30:19.474Z,100756.15
2023-08-16T14:32:47.609Z,100757.13
2023-08-16T14:35:15.708Z,100754.10
2023-08-16T14:37:43.784Z,100750.30
2023-08-16T14:40:19.008Z,100746.43
2023-08-16T14:42:53.977Z,100747.23
2023-08-16T14:45:23.884Z,100742.10
2023-08-16T14:47:52.496Z,100739.63
2023-08-16T14:50:21.041Z,100734.95
2023-08-16T14:52:49.105Z,100739.84
2023-08-16T14:55:17.208Z,100744.55
2023-08-16T14:57:47.672Z,100744.91
2023-08-16T15:00:17.099Z,100742.12
2023-08-16T15:02:45.529Z,100740.95
2023-08-16T15:05:13.834Z,100737.34
2023-08-16T15:07:43.037Z,100737.98
2023-08-16T15:10:11.245Z,100738.02
2023-08-16T15:12:40.493Z,100737.62
2023-08-16T15:15:10.226Z,100734.69
2023-08-16T15:17:39.122Z,100733.45
2023-08-16T15:20:10.244Z,100734.32
2023-08-16T15:22:38.674Z,100734.80
2023-08-16T15:25:08.408Z,100732.64
2023-08-16T15:27:36.527Z,100732.12
2023-08-16T15:30:05.123Z,100735.35
2023-08-16T15:32:33.029Z,100730.30
2023-08-16T15:35:04.628Z,100726.13
2023-08-16T15:37:32.580Z,100724.15
2023-08-16T15:40:00.956Z,100726.43
2023-08-16T15:42:29.013Z,100723.23
2023-08-16T15:44:57.036Z,100721.46
2023-08-16T15:47:26.122Z,100726.09
2023-08-16T15:49:54.558Z,100730.50
2023-08-16T15:52:22.629Z,100732.17
2023-08-16T15:54:50.483Z,100730.86
2023-08-16T15:57:18.473Z,100729.09
2023-08-16T15:59:48.831Z,100727.73
2023-08-16T16:02:17.204Z,100727.77
2023-08-16T16:04:45.781Z,100725.28
2023-08-16T16:07:15.023Z,100729.02
2023-08-16T16:09:43.041Z,100728.79
2023-08-16T16:12:11.266Z,100729.71
2023-08-16T16:14:39.255Z,100729.66
2023-08-16T16:17:22.356Z,100731.14
2023-08-16T16:19:50.817Z,100726.70
2023-08-16T16:22:19.536Z,100731.50
2023-08-16T16:24:47.974Z,100729.53
2023-08-16T16:27:16.109Z,100726.11
2023-08-16T16:29:44.094Z,100725.30
2023-08-16T16:32:12.178Z,100720.48
2023-08-16T16:34:40.155Z,100725.75
2023-08-16T16:37:08.091Z,100717.00
2023-08-16T16:39:36.092Z,100717.19
2023-08-16T16:42:05.699Z,100716.89
2023-08-16T16:44:34.318Z,100717.73
2023-08-16T16:47:02.301Z,100714.13
2023-08-16T16:49:30.308Z,100713.13
2023-08-16T16:51:58.250Z,100715.70
2023-08-16T16:54:26.317Z,100719.17
2023-08-16T16:56:54.313Z,100721.04
2023-08-16T16:59:22.205Z,100720.66
2023-08-16T17:01:50.400Z,100720.89
2023-08-16T17:04:18.335Z,100722.27
2023-08-16T17:06:47.741Z,100725.91
2023-08-16T17:09:15.708Z,100726.51
2023-08-16T17:11:43.663Z,100728.88
2023-08-16T17:14:11.555Z,100731.75
2023-08-16T17:16:42.864Z,100732.39
2023-08-16T17:19:10.816Z,100735.27
2023-08-16T17:21:39.500Z,100735.50
2023-08-16T17:24:07.933Z,100734.17
2023-08-16T17:26:36.060Z,100736.77
2023-08-16T17:29:04.358Z,100734.77
2023-08-16T17:31:32.368Z,100740.03
2023-08-16T17:34:00.328Z,100735.27
2023-08-16T17:36:28.277Z,100736.47
2023-08-16T17:38:56.207Z,100735.72
2023-08-16T17:41:24.181Z,100736.77
2023-08-16T17:43:53.138Z,100735.00
2023-08-16T17:46:22.475Z,100736.05
2023-08-16T17:48:50.467Z,100738.70
2023-08-16T17:51:18.584Z,100738.23
2023-08-16T17:53:46.757Z,100743.14
2023-08-16T17:56:16.426Z,100747.05
2023-08-16T17:58:44.561Z,100747.25
2023-08-16T18:01:14.487Z,100751.33
2023-08-16T18:03:42.641Z,100758.00
2023-08-16T18:06:10.773Z,100760.43
2023-08-16T18:08:38.841Z,100762.75
2023-08-16T18:11:06.801Z,100765.66
2023-08-16T18:13:38.025Z,100768.27
2023-08-16T18:16:06.101Z,100767.95
2023-08-16T18:18:34.732Z,100767.64
2023-08-16T18:21:02.802Z,100767.27
2023-08-16T18:23:30.778Z,100770.55
2023-08-16T18:25:58.850Z,100772.44
2023-08-16T18:28:26.832Z,100777.73
2023-08-16T18:30:55.451Z,100781.36
2023-08-16T18:33:23.845Z,100783.83
2023-08-16T18:35:52.374Z,100786.20
2023-08-16T18:38:20.330Z,100791.66
2023-08-16T18:40:49.830Z,100793.20
2023-08-16T18:43:19.392Z,100799.84
2023-08-16T18:45:48.412Z,100800.16
2023-08-16T18:48:16.433Z,100801.34
2023-08-16T18:50:45.230Z,100805.61
2023-08-16T18:53:13.156Z,100807.57
2023-08-16T18:55:42.935Z,100808.60
2023-08-16T18:58:10.909Z,100810.33
2023-08-16T19:00:40.792Z,100811.48
2023-08-16T19:03:09.325Z,100810.03
2023-08-16T19:05:46.579Z,100809.30
2023-08-16T19:08:15.746Z,100815.42
2023-08-16T19:10:44.005Z,100815.16
2023-08-16T19:13:11.952Z,100810.92
2023-08-16T19:15:39.874Z,100813.44
2023-08-16T19:18:08.477Z,100810.38
2023-08-16T19:20:37.891Z,100812.61
2023-08-16T19:23:07.209Z,100808.17
2023-08-16T19:25:35.163Z,100810.66
2023-08-16T19:28:03.284Z,100813.48
2023-08-16T19:30:31.472Z,100814.71
2023-08-16T19:32:59.355Z,100823.84
2023-08-16T19:35:28.106Z,100826.21
2023-08-16T19:37:56.249Z,100823.05
2023-08-16T19:40:24.321Z,100826.11
2023-08-16T19:42:52.341Z,100825.11
2023-08-16T19:45:20.374Z,100823.41
2023-08-16T19:47:48.358Z,100822.17
2023-08-16T19:50:21.083Z,100819.33
2023-08-16T19:52:50.551Z,100820.27
2023-08-16T19:55:19.517Z,100818.94
2023-08-16T19:57:48.190Z,100823.33
2023-08-16T20:00:21.596Z,100823.47
2023-08-16T20:02:50.398Z,100820.34
2023-08-16T20:05:18.684Z,100820.22
2023-08-16T20:07:46.722Z,100820.83
2023-08-16T20:10:14.956Z,100819.10
2023-08-16T20:12:42.886Z,100818.40
2023-08-16T20:15:12.039Z,100819.79
2023-08-16T20:17:40.191Z,100820.48
2023-08-16T20:20:11.016Z,100822.81
2023-08-16T20:22:39.245Z,100817.31
2023-08-16T20:25:07.660Z,100817.23
2023-08-16T20:27:36.041Z,100819.66
2023-08-16T20:30:04.472Z,100818.45
2023-08-16T20:32:32.750Z,100824.11
2023-08-16T20:35:01.906Z,100819.61
2023-08-16T20:37:30.076Z,100821.77
2023-08-16T20:39:58.084Z,100824.70
2023-08-16T20:42:37.306Z,100824.91
2023-08-16T20:45:09.918Z,100826.75
2023-08-16T20:47:39.158Z,100824.95
2023-08-16T20:50:07.736Z,100828.23
2023-08-16T20:52:39.581Z,100829.09
2023-08-16T20:55:10.305Z,100828.91
2023-08-16T20:57:38.695Z,100828.78
2023-08-16T21:00:08.183Z,100828.16
2023-08-16T21:02:36.499Z,100826.55
2023-08-16T21:05:04.752Z,100827.61
2023-08-16T21:07:32.636Z,100830.89
2023-08-16T21:10:00.757Z,100834.36
2023-08-16T21:12:28.751Z,100835.66
2023-08-16T21:14:56.705Z,100835.41
2023-08-16T21:17:24.971Z,100838.96
2023-08-16T21:19:53.175Z,100842.05
2023-08-16T21:22:21.686Z,100836.91
2023-08-16T21:24:49.763Z,100840.02
2023-08-16T21:27:17.853Z,100836.76
2023-08-16T21:29:45.819Z,100845.12
2023-08-16T21:32:13.905Z,100842.39
2023-08-16T21:34:42.099Z,100835.91
2023-08-16T21:37:10.126Z,100834.44
2023-08-16T21:39:38.173Z,100832.11
2023-08-16T21:42:06.185Z,100828.80
2023-08-16T21:44:35.211Z,100830.80
2023-08-16T21:47:03.860Z,100832.68
2023-08-16T21:49:32.353Z,100833.11
2023-08-16T21:52:00.237Z,100831.59
2023-08-16T21:54:28.159Z,100829.88
2023-08-16T21:56:56.096Z,100833.05
2023-08-16T21:59:24.061Z,100831.98
2023-08-16T22:01:51.951Z,100827.30
2023-08-16T22:04:19.934Z,100823.15
2023-08-16T22:06:47.928Z,100817.09
2023-08-16T22:09:16.545Z,100813.12
2023-08-16T22:11:44.481Z,100811.28
2023-08-16T22:14:13.140Z,100810.06
2023-08-16T22:16:41.293Z,100805.54
2023-08-16T22:19:09.272Z,100806.46
2023-08-16T22:21:37.374Z,100805.99
2023-08-16T22:24:06.345Z,100810.59
2023-08-16T22:26:35.056Z,100815.59
2023-08-16T22:29:03.341Z,100818.17
2023-08-16T22:31:31.479Z,100812.95
2023-08-16T22:34:00.794Z,100816.96
2023-08-16T22:36:28.894Z,100820.17
2023-08-16T22:38:56.851Z,100819.70
2023-08-16T22:41:24.898Z,100815.65
2023-08-16T22:43:52.889Z,100814.73
2023-08-16T22:46:21.229Z,100820.45
2023-08-16T22:48:50.108Z,100817.33
2023-08-16T22:51:18.010Z,100814.81
2023-08-16T22:53:45.991Z,100813.95
2023-08-16T22:56:14.043Z,100810.67
2023-08-16T22:58:44.049Z,100802.61
2023-08-16T23:01:12.294Z,100789.70
2023-08-16T23:03:40.491Z,100783.52
2023-08-16T23:06:08.408Z,100783.52
2023-08-16T23:08:36.417Z,100777.66
2023-08-16T23:11:04.541Z,100784.64
2023-08-16T23:13:32.539Z,100791.52
2023-08-16T23:16:01.262Z,100789.63
2023-08-16T23:18:29.366Z,100796.65
2023-08-16T23:20:57.509Z,100796.34
2023-08-16T23:23:25.479Z,100802.36
2023-08-16T23:25:58.090Z,100797.73
2023-08-16T23:28:26.402Z,100804.35
2023-08-16T23:30:54.299Z,100802.08
2023-08-16T23:33:22.242Z,100803.89
2023-08-16T23:35:50.324Z,100807.20
2023-08-16T23:38:18.300Z,100809.16
2023-08-16T23:40:46.251Z,100814.02
2023-08-16T23:43:14.317Z,100823.45
2023-08-16T23:45:42.782Z,100824.64
2023-08-16T23:48:10.779Z,100830.90
2023-08-16T23:50:38.905Z,100831.81
2023-08-16T23:53:06.800Z,100830.77
2023-08-16T23:55:34.827Z,100836.22
2023-08-16T23:58:02.976Z,100838.00
